Terminal Aerodrome Forecast
Issued by NWS

Home | Current Version | Previous Version | Text Only | Print | Product List | Glossary On
Versions: 1 2 3 4 5 6 7 8 9 10 11 12 13
000
FTUS44 KBMX 280520
TAFTOI
TAF
KTOI 280520Z 2806/2906 00000KT P6SM FEW060
     FM281500 10007KT P6SM SCT040
     FM282200 10005KT P6SM BKN040=

USA.gov is the U.S. government's official web portal to all federal, state and local government web resources and services.